Time;durP1;ratioP1;P1;durP2;ratioP2;P2;SDS_P1;SDS_P2;PMS_P1;PMS_P2;Temp;Humidity;BMP_temperature;BMP_pressure;BME280_temperature;BME280_humidity;BME280_pressure;Samples;Min_cycle;Max_cycle;Signal;HPM_P1;HPM_P2
2023/09/17 00:02:23;;;;;;;30.90;23.60;;;;;;;;;;4993849;28;20038;-71
2023/09/17 00:04:49;;;;;;;33.17;23.42;;;;;;;;;;4993950;28;20038;-71
2023/09/17 00:07:15;;;;;;;31.90;24.48;;;;;;;;;;4993951;28;20481;-71
2023/09/17 00:09:41;;;;;;;31.50;24.20;;;;;;;;;;4986059;28;20279;-71
2023/09/17 00:12:07;;;;;;;30.10;24.42;;;;;;;;;;4994416;28;20037;-71
2023/09/17 00:14:33;;;;;;;32.00;25.13;;;;;;;;;;4994212;28;20117;-71
2023/09/17 00:16:59;;;;;;;31.92;24.42;;;;;;;;;;4993120;28;20045;-71
2023/09/17 00:19:26;;;;;;;33.60;25.73;;;;;;;;;;4993553;28;20038;-71
2023/09/17 00:21:52;;;;;;;32.72;25.05;;;;;;;;;;4994375;28;20034;-71
2023/09/17 00:24:18;;;;;;;33.03;24.58;;;;;;;;;;4994210;28;20089;-71
2023/09/17 00:26:44;;;;;;;36.45;26.10;;;;;;;;;;4993529;28;20681;-71
2023/09/17 00:29:10;;;;;;;31.75;25.08;;;;;;;;;;4992220;28;20100;-71
2023/09/17 00:31:37;;;;;;;33.28;23.67;;;;;;;;;;4993925;28;20121;-71
2023/09/17 00:34:03;;;;;;;34.58;24.27;;;;;;;;;;4993314;28;20043;-71
2023/09/17 00:36:30;;;;;;;31.48;24.08;;;;;;;;;;4992293;28;20042;-71
2023/09/17 00:38:56;;;;;;;33.25;24.50;;;;;;;;;;4993540;28;20038;-71
2023/09/17 00:41:22;;;;;;;31.05;25.05;;;;;;;;;;4992930;28;20097;-71
2023/09/17 00:43:48;;;;;;;32.05;24.40;;;;;;;;;;4991961;28;20046;-71
2023/09/17 00:46:14;;;;;;;32.47;23.88;;;;;;;;;;4991834;28;20066;-71
2023/09/17 00:48:41;;;;;;;29.55;23.48;;;;;;;;;;4993391;28;20042;-71
2023/09/17 00:51:07;;;;;;;32.53;24.38;;;;;;;;;;4993343;28;20038;-71
2023/09/17 00:53:33;;;;;;;32.95;23.95;;;;;;;;;;4993674;28;20442;-71
2023/09/17 00:55:59;;;;;;;34.55;24.60;;;;;;;;;;4993111;28;20039;-71
2023/09/17 00:58:28;;;;;;;31.90;25.25;;;;;;;;;;4992677;28;20046;-71
2023/09/17 01:00:54;;;;;;;34.55;25.92;;;;;;;;;;4986731;28;20404;-71
2023/09/17 01:03:21;;;;;;;33.45;24.13;;;;;;;;;;4993230;28;20046;-71
2023/09/17 01:05:48;;;;;;;34.22;26.02;;;;;;;;;;4992957;28;20109;-71
2023/09/17 01:08:15;;;;;;;34.83;24.48;;;;;;;;;;4992871;28;20161;-71
2023/09/17 01:10:41;;;;;;;32.97;24.13;;;;;;;;;;4991798;28;20042;-71
2023/09/17 01:13:08;;;;;;;31.33;23.60;;;;;;;;;;4992064;28;20129;-71
2023/09/17 01:15:34;;;;;;;32.25;25.00;;;;;;;;;;4992327;28;20053;-71
2023/09/17 01:18:01;;;;;;;35.85;24.17;;;;;;;;;;4985141;28;20547;-71
2023/09/17 01:20:30;;;;;;;32.47;24.90;;;;;;;;;;4992981;28;20425;-71
2023/09/17 01:22:59;;;;;;;31.17;24.35;;;;;;;;;;4993281;28;20424;-71
2023/09/17 01:25:42;;;;;;;30.70;24.95;;;;;;;;;;4992065;28;20420;-71
2023/09/17 01:28:12;;;;;;;33.58;24.98;;;;;;;;;;4992816;28;20042;-71
2023/09/17 01:30:41;;;;;;;32.13;23.80;;;;;;;;;;4993169;28;20053;-71
2023/09/17 01:33:09;;;;;;;30.20;23.63;;;;;;;;;;4986109;28;20031;-71
2023/09/17 01:35:37;;;;;;;30.10;23.35;;;;;;;;;;4991632;28;20042;-71
2023/09/17 01:38:06;;;;;;;28.88;22.45;;;;;;;;;;4991556;28;20042;-71
2023/09/17 01:40:33;;;;;;;28.77;22.00;;;;;;;;;;4992505;28;20376;-71
2023/09/17 01:43:00;;;;;;;27.52;22.08;;;;;;;;;;4993296;28;20109;-71
2023/09/17 01:45:28;;;;;;;33.40;23.42;;;;;;;;;;4992489;28;20081;-71
2023/09/17 01:47:54;;;;;;;28.92;21.92;;;;;;;;;;4992567;28;20449;-71
2023/09/17 01:50:23;;;;;;;30.80;22.20;;;;;;;;;;4991928;28;20046;-71
2023/09/17 01:52:49;;;;;;;29.17;21.02;;;;;;;;;;4998198;28;20412;-71
2023/09/17 01:55:15;;;;;;;28.77;22.27;;;;;;;;;;4990763;28;20673;-71
2023/09/17 01:57:42;;;;;;;28.75;21.67;;;;;;;;;;4998444;28;20030;-71
2023/09/17 02:00:16;;;;;;;27.52;21.25;;;;;;;;;;4998964;28;20096;-71
2023/09/17 02:02:49;;;;;;;27.20;21.05;;;;;;;;;;4998337;28;20088;-71
2023/09/17 02:05:16;;;;;;;26.10;21.02;;;;;;;;;;4998003;28;20053;-71
2023/09/17 02:07:43;;;;;;;30.95;21.52;;;;;;;;;;4997864;28;20049;-71
2023/09/17 02:10:09;;;;;;;27.80;20.38;;;;;;;;;;4998415;28;20065;-71
2023/09/17 02:12:35;;;;;;;26.02;19.75;;;;;;;;;;4999133;28;20042;-71
2023/09/17 02:15:01;;;;;;;27.48;20.55;;;;;;;;;;4997077;28;20038;-71
2023/09/17 02:17:28;;;;;;;25.75;19.90;;;;;;;;;;4997631;28;20050;-71
2023/09/17 02:19:54;;;;;;;27.17;20.55;;;;;;;;;;4992503;28;20081;-70
2023/09/17 02:22:20;;;;;;;29.67;21.77;;;;;;;;;;4998844;28;20440;-70
2023/09/17 02:24:46;;;;;;;26.42;20.13;;;;;;;;;;4998804;28;20045;-71
2023/09/17 02:27:13;;;;;;;28.55;21.00;;;;;;;;;;4998521;28;20054;-71
2023/09/17 02:29:40;;;;;;;25.63;20.33;;;;;;;;;;4997579;28;20057;-71
2023/09/17 02:32:06;;;;;;;26.17;20.77;;;;;;;;;;4998907;28;20121;-71
2023/09/17 02:34:32;;;;;;;27.58;20.77;;;;;;;;;;4998861;28;20042;-71
2023/09/17 02:36:58;;;;;;;27.35;20.08;;;;;;;;;;4996684;28;20030;-71
2023/09/17 02:39:24;;;;;;;28.95;21.25;;;;;;;;;;4998687;28;20457;-71
2023/09/17 02:41:50;;;;;;;27.38;20.15;;;;;;;;;;4998456;28;20489;-71
2023/09/17 02:44:16;;;;;;;28.48;21.50;;;;;;;;;;4999024;28;20040;-71
2023/09/17 02:46:42;;;;;;;27.50;20.80;;;;;;;;;;4997057;28;20469;-71
2023/09/17 02:49:09;;;;;;;27.40;20.65;;;;;;;;;;4998283;28;20117;-71
2023/09/17 02:51:35;;;;;;;29.15;21.40;;;;;;;;;;4998392;28;20042;-71
2023/09/17 02:54:01;;;;;;;28.15;20.83;;;;;;;;;;4999023;28;20377;-71
2023/09/17 02:56:27;;;;;;;30.05;22.27;;;;;;;;;;4997921;28;20039;-71
2023/09/17 02:58:53;;;;;;;32.80;22.13;;;;;;;;;;4998635;28;20088;-71
2023/09/17 03:01:19;;;;;;;29.80;22.05;;;;;;;;;;4997095;28;20406;-71
2023/09/17 03:03:45;;;;;;;30.77;22.23;;;;;;;;;;4995760;28;20034;-71
2023/09/17 03:06:12;;;;;;;32.80;23.20;;;;;;;;;;4994306;28;20876;-71
2023/09/17 03:08:41;;;;;;;31.40;22.27;;;;;;;;;;4995744;28;20077;-71
2023/09/17 03:11:13;;;;;;;31.20;22.73;;;;;;;;;;4994390;28;20045;-71
2023/09/17 03:13:40;;;;;;;28.65;22.10;;;;;;;;;;4992615;28;20038;-71
2023/09/17 03:16:06;;;;;;;34.40;23.55;;;;;;;;;;4989443;28;20369;-71
2023/09/17 03:18:32;;;;;;;29.90;22.15;;;;;;;;;;4995674;28;20053;-71
2023/09/17 03:20:58;;;;;;;33.65;24.17;;;;;;;;;;4994973;28;20060;-71
2023/09/17 03:23:24;;;;;;;34.80;24.45;;;;;;;;;;4995389;28;20121;-71
2023/09/17 03:25:51;;;;;;;37.47;25.02;;;;;;;;;;4986850;28;20043;-71
2023/09/17 03:28:17;;;;;;;36.20;25.73;;;;;;;;;;4995031;28;20101;-71
2023/09/17 03:30:43;;;;;;;35.38;25.45;;;;;;;;;;4995048;28;20034;-71
2023/09/17 03:33:09;;;;;;;39.28;26.45;;;;;;;;;;4995135;28;20443;-71
2023/09/17 03:35:36;;;;;;;37.50;26.73;;;;;;;;;;4995151;28;20050;-71
2023/09/17 03:38:02;;;;;;;39.10;26.77;;;;;;;;;;4994176;28;20038;-71
2023/09/17 03:40:28;;;;;;;38.13;26.63;;;;;;;;;;4995051;28;20038;-70
2023/09/17 03:42:54;;;;;;;38.22;26.52;;;;;;;;;;4994762;28;20396;-70
2023/09/17 03:45:20;;;;;;;38.92;27.05;;;;;;;;;;4993402;28;20049;-70
2023/09/17 03:47:47;;;;;;;37.58;26.75;;;;;;;;;;4993928;28;20484;-70
2023/09/17 03:50:15;;;;;;;42.60;28.13;;;;;;;;;;4994857;28;20116;-70
2023/09/17 03:52:43;;;;;;;40.78;27.70;;;;;;;;;;4994345;28;20050;-70
2023/09/17 03:55:09;;;;;;;41.00;27.83;;;;;;;;;;4992764;28;20133;-70
2023/09/17 03:57:36;;;;;;;42.15;28.45;;;;;;;;;;4994017;28;20511;-70
2023/09/17 04:00:12;;;;;;;37.72;27.10;;;;;;;;;;4994598;28;20038;-70
2023/09/17 04:02:38;;;;;;;38.67;28.00;;;;;;;;;;4993312;28;20035;-71
2023/09/17 04:05:11;;;;;;;39.22;28.00;;;;;;;;;;4990508;28;20042;-71
2023/09/17 04:07:41;;;;;;;38.92;27.10;;;;;;;;;;4993233;28;20050;-71
2023/09/17 04:10:07;;;;;;;39.55;27.95;;;;;;;;;;4992810;28;20492;-71
2023/09/17 04:12:37;;;;;;;37.97;28.30;;;;;;;;;;4993224;28;20056;-71
2023/09/17 04:15:05;;;;;;;38.83;27.80;;;;;;;;;;4994271;28;20039;-71
2023/09/17 04:17:31;;;;;;;37.55;28.13;;;;;;;;;;4994203;28;20042;-71
2023/09/17 04:19:57;;;;;;;38.75;28.05;;;;;;;;;;4994229;28;20093;-71
2023/09/17 04:22:23;;;;;;;37.80;27.27;;;;;;;;;;4985501;28;20047;-70
2023/09/17 04:24:49;;;;;;;41.22;28.33;;;;;;;;;;4994156;28;20069;-70
2023/09/17 04:27:16;;;;;;;44.65;29.10;;;;;;;;;;4993207;28;20133;-70
2023/09/17 04:29:42;;;;;;;40.10;28.38;;;;;;;;;;4994144;28;20039;-70
2023/09/17 04:32:08;;;;;;;39.60;28.10;;;;;;;;;;4993860;28;20149;-70
2023/09/17 04:34:34;;;;;;;40.63;28.40;;;;;;;;;;4994171;28;20038;-70
2023/09/17 04:37:01;;;;;;;41.22;28.90;;;;;;;;;;4991668;28;20566;-71
2023/09/17 04:39:27;;;;;;;38.10;28.70;;;;;;;;;;4993769;28;20100;-70
2023/09/17 04:41:53;;;;;;;41.53;29.13;;;;;;;;;;4993664;28;20113;-70
2023/09/17 04:44:19;;;;;;;38.17;27.30;;;;;;;;;;4993549;28;20089;-70
2023/09/17 04:46:47;;;;;;;39.92;28.58;;;;;;;;;;4993105;28;20030;-70
2023/09/17 04:49:13;;;;;;;44.90;30.25;;;;;;;;;;4993378;28;20042;-70
2023/09/17 04:51:39;;;;;;;42.75;30.40;;;;;;;;;;4993627;28;20042;-70
2023/09/17 04:54:05;;;;;;;42.60;29.10;;;;;;;;;;4991868;28;20034;-70
2023/09/17 04:56:32;;;;;;;45.03;29.75;;;;;;;;;;4992978;28;20042;-70
2023/09/17 04:59:01;;;;;;;43.42;30.17;;;;;;;;;;4985413;28;20038;-70
2023/09/17 05:01:27;;;;;;;45.92;30.35;;;;;;;;;;4991797;28;20046;-70
2023/09/17 05:03:54;;;;;;;49.10;30.98;;;;;;;;;;4993203;28;20053;-70
2023/09/17 05:06:20;;;;;;;45.35;33.05;;;;;;;;;;4993053;28;20038;-70
2023/09/17 05:08:46;;;;;;;46.58;32.58;;;;;;;;;;4992704;28;20038;-70
2023/09/17 05:11:12;;;;;;;52.63;33.53;;;;;;;;;;4993068;28;20045;-70
2023/09/17 05:13:38;;;;;;;49.38;32.80;;;;;;;;;;4991734;28;20077;-70
2023/09/17 05:16:04;;;;;;;51.33;33.90;;;;;;;;;;4993144;28;20077;-70
2023/09/17 05:18:30;;;;;;;49.65;33.83;;;;;;;;;;4984218;28;20543;-70
2023/09/17 05:20:56;;;;;;;53.97;34.30;;;;;;;;;;4991956;28;20038;-70
2023/09/17 05:23:22;;;;;;;51.28;34.08;;;;;;;;;;4992685;28;20511;-70
2023/09/17 05:25:49;;;;;;;50.80;34.75;;;;;;;;;;4992379;28;20038;-70
2023/09/17 05:28:15;;;;;;;51.70;35.13;;;;;;;;;;4992175;28;20038;-70
2023/09/17 05:30:41;;;;;;;53.55;35.15;;;;;;;;;;4993072;28;20045;-70
2023/09/17 05:33:07;;;;;;;51.47;34.92;;;;;;;;;;4992961;28;20049;-70
2023/09/17 05:35:34;;;;;;;55.42;36.35;;;;;;;;;;4992392;28;20118;-70
2023/09/17 05:38:00;;;;;;;54.55;35.45;;;;;;;;;;4992254;28;20126;-70
2023/09/17 05:40:26;;;;;;;52.45;34.10;;;;;;;;;;4993157;28;20108;-70
2023/09/17 05:42:52;;;;;;;52.92;34.83;;;;;;;;;;4992912;28;20038;-70
2023/09/17 05:45:18;;;;;;;52.15;35.17;;;;;;;;;;4992714;28;20038;-70
2023/09/17 05:47:45;;;;;;;56.30;35.85;;;;;;;;;;4992326;28;20092;-70
2023/09/17 05:50:11;;;;;;;52.22;34.55;;;;;;;;;;4992821;28;20377;-70
2023/09/17 05:52:38;;;;;;;52.47;35.53;;;;;;;;;;4991773;28;20047;-70
2023/09/17 05:55:04;;;;;;;50.67;35.10;;;;;;;;;;4992921;28;20050;-70
2023/09/17 05:57:31;;;;;;;49.10;34.90;;;;;;;;;;4991052;28;20053;-70
2023/09/17 05:59:57;;;;;;;55.13;34.10;;;;;;;;;;4992732;28;20533;-70
2023/09/17 06:02:23;;;;;;;49.88;34.33;;;;;;;;;;4992190;28;20038;-70
2023/09/17 06:04:53;;;;;;;48.45;34.10;;;;;;;;;;4990940;28;20042;-70
2023/09/17 06:07:22;;;;;;;46.08;32.63;;;;;;;;;;4991935;28;20038;-71
2023/09/17 06:09:47;;;;;;;51.92;34.85;;;;;;;;;;4991350;28;20053;-71
2023/09/17 06:12:15;;;;;;;48.38;34.55;;;;;;;;;;4992710;28;20030;-71
2023/09/17 06:14:41;;;;;;;52.85;33.63;;;;;;;;;;4991103;28;20042;-71
2023/09/17 06:17:07;;;;;;;48.00;32.65;;;;;;;;;;4990638;28;20061;-71
2023/09/17 06:19:33;;;;;;;48.70;34.72;;;;;;;;;;4992251;28;20508;-71
2023/09/17 06:21:59;;;;;;;48.47;33.05;;;;;;;;;;4991112;28;20137;-71
2023/09/17 06:24:25;;;;;;;50.75;33.95;;;;;;;;;;4990632;28;20045;-71
2023/09/17 06:26:52;;;;;;;48.78;33.88;;;;;;;;;;4990632;28;20074;-71
2023/09/17 06:29:18;;;;;;;48.28;32.97;;;;;;;;;;4990785;28;20504;-71
2023/09/17 06:31:44;;;;;;;45.83;32.72;;;;;;;;;;4991071;28;20035;-71
2023/09/17 06:34:10;;;;;;;47.88;32.33;;;;;;;;;;4984912;28;20481;-71
2023/09/17 06:36:37;;;;;;;56.10;33.30;;;;;;;;;;4989669;28;20053;-71
2023/09/17 06:39:03;;;;;;;47.42;32.25;;;;;;;;;;4992494;28;20034;-71
2023/09/17 06:41:29;;;;;;;48.78;34.33;;;;;;;;;;4994388;28;20082;-71
2023/09/17 06:43:55;;;;;;;49.83;32.45;;;;;;;;;;4994281;28;20073;-71
2023/09/17 06:46:24;;;;;;;46.55;31.20;;;;;;;;;;4994259;28;20508;-71
2023/09/17 06:48:50;;;;;;;48.70;32.70;;;;;;;;;;4994270;28;20039;-71
2023/09/17 06:51:17;;;;;;;48.38;33.03;;;;;;;;;;4995778;28;20490;-71
2023/09/17 06:53:43;;;;;;;46.65;33.20;;;;;;;;;;4995997;28;20038;-71
2023/09/17 06:56:10;;;;;;;53.30;34.15;;;;;;;;;;4995539;28;20041;-71
2023/09/17 06:58:36;;;;;;;47.35;32.92;;;;;;;;;;4994473;28;20050;-71
2023/09/17 07:01:02;;;;;;;49.13;34.03;;;;;;;;;;4994741;28;20038;-71
2023/09/17 07:03:28;;;;;;;47.83;32.97;;;;;;;;;;4994008;28;20042;-71
2023/09/17 07:05:54;;;;;;;50.08;33.78;;;;;;;;;;4993714;28;20491;-71
2023/09/17 07:08:20;;;;;;;47.97;33.65;;;;;;;;;;4995318;28;20038;-71
2023/09/17 07:10:46;;;;;;;49.00;33.40;;;;;;;;;;4995540;28;20034;-71
2023/09/17 07:13:13;;;;;;;51.25;35.08;;;;;;;;;;4995862;28;20492;-71
2023/09/17 07:15:39;;;;;;;49.78;34.35;;;;;;;;;;4994801;28;20042;-71
2023/09/17 07:18:10;;;;;;;51.10;34.97;;;;;;;;;;4987172;28;20044;-71
2023/09/17 07:20:36;;;;;;;;;;;;;;;;;;4995584;28;20125;-71
2023/09/17 07:23:02;;;;;;;55.08;36.45;;;;;;;;;;4995332;28;20016;-71
2023/09/17 07:25:28;;;;;;;52.60;36.08;;;;;;;;;;4994829;28;20042;-71
2023/09/17 07:27:54;;;;;;;54.00;36.47;;;;;;;;;;4995316;28;20117;-71
2023/09/17 07:30:20;;;;;;;51.47;35.70;;;;;;;;;;4993678;28;20201;-71
2023/09/17 07:32:46;;;;;;;49.78;36.00;;;;;;;;;;4994297;28;20038;-71
2023/09/17 07:35:12;;;;;;;55.20;36.70;;;;;;;;;;4993276;28;20049;-71
2023/09/17 07:37:38;;;;;;;51.88;36.55;;;;;;;;;;4995124;28;20046;-71
2023/09/17 07:40:05;;;;;;;55.83;36.50;;;;;;;;;;4994633;28;20419;-71
2023/09/17 07:42:31;;;;;;;53.53;37.45;;;;;;;;;;4995108;28;20042;-71
2023/09/17 07:44:57;;;;;;;51.55;35.22;;;;;;;;;;4994508;28;20042;-71
2023/09/17 07:47:23;;;;;;;48.10;35.78;;;;;;;;;;4993542;28;20049;-71
2023/09/17 07:49:49;;;;;;;53.25;35.70;;;;;;;;;;4993625;28;20045;-71
2023/09/17 07:52:15;;;;;;;51.20;34.72;;;;;;;;;;4994703;28;20034;-71
2023/09/17 07:54:43;;;;;;;53.25;35.55;;;;;;;;;;4994824;28;20046;-71
2023/09/17 07:57:13;;;;;;;52.97;35.22;;;;;;;;;;4986168;28;20374;-71
2023/09/17 07:59:39;;;;;;;53.80;37.78;;;;;;;;;;4986236;28;20043;-71
2023/09/17 08:02:05;;;;;;;51.55;37.45;;;;;;;;;;4994461;28;20035;-71
2023/09/17 08:04:31;;;;;;;52.40;37.35;;;;;;;;;;4993203;28;20042;-71
2023/09/17 08:06:57;;;;;;;56.70;38.63;;;;;;;;;;4986074;28;20113;-71
2023/09/17 08:09:23;;;;;;;53.60;37.60;;;;;;;;;;4993929;28;20042;-71
2023/09/17 08:11:50;;;;;;;57.78;37.20;;;;;;;;;;4993036;28;20085;-70
2023/09/17 08:14:16;;;;;;;56.30;37.35;;;;;;;;;;4993504;28;20133;-71
2023/09/17 08:16:42;;;;;;;55.85;39.33;;;;;;;;;;4993867;28;20678;-71
2023/09/17 08:19:08;;;;;;;54.45;38.85;;;;;;;;;;4994197;28;20072;-71
2023/09/17 08:21:34;;;;;;;53.63;37.15;;;;;;;;;;4993751;28;20077;-71
2023/09/17 08:24:01;;;;;;;48.63;35.50;;;;;;;;;;4994281;28;20066;-71
2023/09/17 08:26:30;;;;;;;53.47;37.45;;;;;;;;;;4993673;28;20050;-70
2023/09/17 08:28:56;;;;;;;56.85;36.67;;;;;;;;;;4994101;28;20048;-71
2023/09/17 08:31:25;;;;;;;56.22;38.05;;;;;;;;;;4994016;28;20050;-71
2023/09/17 08:33:51;;;;;;;50.95;35.95;;;;;;;;;;4993852;28;20130;-71
2023/09/17 08:36:21;;;;;;;51.15;37.15;;;;;;;;;;4993990;28;20038;-71
2023/09/17 08:38:48;;;;;;;53.55;36.08;;;;;;;;;;4993640;28;20054;-71
2023/09/17 08:41:14;;;;;;;58.70;37.53;;;;;;;;;;4993741;28;20452;-71
2023/09/17 08:43:42;;;;;;;52.35;36.72;;;;;;;;;;4993821;28;20042;-71
2023/09/17 08:46:08;;;;;;;58.00;37.25;;;;;;;;;;4991594;28;20065;-71
2023/09/17 08:48:34;;;;;;;51.97;35.65;;;;;;;;;;4993897;28;20074;-71
2023/09/17 08:51:00;;;;;;;51.33;36.25;;;;;;;;;;4993259;28;20033;-71
2023/09/17 08:53:29;;;;;;;49.70;35.60;;;;;;;;;;4993812;28;20042;-71
2023/09/17 08:55:57;;;;;;;48.08;34.83;;;;;;;;;;4992534;28;20035;-71
2023/09/17 08:58:26;;;;;;;50.05;33.97;;;;;;;;;;4993671;28;20088;-71
2023/09/17 09:00:55;;;;;;;45.53;32.80;;;;;;;;;;4992952;28;20042;-71
2023/09/17 09:03:23;;;;;;;46.88;32.47;;;;;;;;;;4993120;28;20136;-71
2023/09/17 09:05:50;;;;;;;49.97;35.80;;;;;;;;;;4992976;28;20038;-71
2023/09/17 09:08:16;;;;;;;51.03;33.22;;;;;;;;;;4993397;28;20050;-71
2023/09/17 09:10:42;;;;;;;47.30;33.17;;;;;;;;;;4991466;28;20121;-71
2023/09/17 09:13:09;;;;;;;47.40;33.17;;;;;;;;;;4993194;28;20476;-71
2023/09/17 09:15:36;;;;;;;48.45;33.90;;;;;;;;;;4991482;28;20439;-71
2023/09/17 09:18:02;;;;;;;43.90;32.65;;;;;;;;;;4993394;28;20038;-71
2023/09/17 09:20:28;;;;;;;46.28;32.95;;;;;;;;;;4993108;28;20057;-71
2023/09/17 09:22:55;;;;;;;46.35;31.70;;;;;;;;;;4993158;28;20042;-71
2023/09/17 09:25:20;;;;;;;46.15;33.90;;;;;;;;;;4991110;28;20101;-71
2023/09/17 09:27:46;;;;;;;45.85;32.10;;;;;;;;;;4992486;28;20042;-71
2023/09/17 09:30:16;;;;;;;46.78;32.53;;;;;;;;;;4991220;28;20078;-71
2023/09/17 09:32:43;;;;;;;49.35;33.38;;;;;;;;;;4993136;28;20132;-71
2023/09/17 09:35:09;;;;;;;47.42;32.65;;;;;;;;;;4992820;28;20056;-71
2023/09/17 09:37:35;;;;;;;44.70;32.63;;;;;;;;;;4992418;28;20050;-71
2023/09/17 09:40:02;;;;;;;50.00;34.65;;;;;;;;;;4992672;28;20045;-71
2023/09/17 09:42:28;;;;;;;48.65;33.65;;;;;;;;;;4993177;28;20141;-71
2023/09/17 09:44:54;;;;;;;51.80;34.25;;;;;;;;;;4992329;28;20488;-71
2023/09/17 09:47:25;;;;;;;46.92;33.40;;;;;;;;;;4992495;28;20478;-71
2023/09/17 09:49:51;;;;;;;49.28;35.25;;;;;;;;;;4992772;28;20049;-71
2023/09/17 09:52:18;;;;;;;50.55;34.65;;;;;;;;;;4992498;28;20050;-72
2023/09/17 09:54:44;;;;;;;46.60;34.53;;;;;;;;;;4984724;28;20042;-72
2023/09/17 09:57:14;;;;;;;50.03;33.50;;;;;;;;;;4992053;28;20038;-72
2023/09/17 09:59:42;;;;;;;47.35;32.13;;;;;;;;;;4992625;28;20045;-72
2023/09/17 10:02:10;;;;;;;46.67;33.70;;;;;;;;;;4992164;28;20584;-72
2023/09/17 10:04:39;;;;;;;48.10;32.35;;;;;;;;;;4992648;28;20060;-72
2023/09/17 10:07:06;;;;;;;49.20;32.55;;;;;;;;;;4990716;28;20073;-72
2023/09/17 10:09:32;;;;;;;47.15;31.67;;;;;;;;;;4992454;28;20053;-72
2023/09/17 10:11:58;;;;;;;44.22;31.92;;;;;;;;;;4991995;28;20035;-72
2023/09/17 10:14:24;;;;;;;46.05;32.53;;;;;;;;;;4996702;28;20097;-72
2023/09/17 10:16:51;;;;;;;45.78;32.67;;;;;;;;;;4995715;28;20529;-72
2023/09/17 10:19:20;;;;;;;44.97;31.08;;;;;;;;;;4995917;28;20559;-72
2023/09/17 10:21:49;;;;;;;41.30;30.25;;;;;;;;;;4996266;28;20452;-72
2023/09/17 10:24:17;;;;;;;42.00;31.08;;;;;;;;;;4996340;28;20042;-72
2023/09/17 10:26:43;;;;;;;40.97;29.80;;;;;;;;;;4995453;28;20534;-72
2023/09/17 10:29:13;;;;;;;41.42;29.65;;;;;;;;;;4996391;28;20082;-72
2023/09/17 10:31:40;;;;;;;40.20;28.27;;;;;;;;;;4995784;28;20047;-71
2023/09/17 10:34:06;;;;;;;35.72;27.63;;;;;;;;;;4992106;28;20038;-71
2023/09/17 10:36:33;;;;;;;36.88;27.45;;;;;;;;;;4986568;28;20082;-71
2023/09/17 10:39:00;;;;;;;40.38;28.80;;;;;;;;;;4992047;28;20053;-72
2023/09/17 10:41:31;;;;;;;42.90;29.40;;;;;;;;;;4995521;28;20085;-71
2023/09/17 10:43:57;;;;;;;41.33;28.73;;;;;;;;;;4996119;28;20050;-71
2023/09/17 10:46:24;;;;;;;35.92;25.85;;;;;;;;;;4993921;28;20046;-71
2023/09/17 10:48:50;;;;;;;36.33;27.25;;;;;;;;;;5012497;22;20511;-72
2023/09/17 10:51:20;;;;;;;47.55;29.40;;;;;;;;;;5007995;28;20037;-70
2023/09/17 10:53:46;;;;;;;46.45;31.20;;;;;;;;;;5009035;28;20034;-71
2023/09/17 10:56:13;;;;;;;45.38;31.85;;;;;;;;;;4996293;28;20080;-71
2023/09/17 10:58:46;;;;;;;46.05;30.60;;;;;;;;;;4994671;28;20046;-71
2023/09/17 11:01:14;;;;;;;42.97;31.55;;;;;;;;;;4987905;28;20405;-71
2023/09/17 11:03:42;;;;;;;45.53;32.15;;;;;;;;;;4989113;28;20069;-70
2023/09/17 11:06:15;;;;;;;45.03;30.60;;;;;;;;;;4988730;28;20149;-70
2023/09/17 11:08:42;;;;;;;45.17;30.85;;;;;;;;;;4989228;28;20522;-71
2023/09/17 11:11:08;;;;;;;42.58;30.80;;;;;;;;;;4983849;28;20057;-71
2023/09/17 11:13:35;;;;;;;46.38;30.60;;;;;;;;;;4990148;28;20035;-71
2023/09/17 11:16:01;;;;;;;41.97;30.92;;;;;;;;;;4994820;28;20035;-71
2023/09/17 11:18:27;;;;;;;41.72;29.52;;;;;;;;;;4991243;28;20050;-71
2023/09/17 11:21:00;;;;;;;39.92;29.77;;;;;;;;;;4989053;28;20531;-71
2023/09/17 11:23:48;;;;;;;40.90;29.38;;;;;;;;;;4985663;28;20046;-71
2023/09/17 11:26:15;;;;;;;37.85;27.63;;;;;;;;;;4989659;28;20037;-72
2023/09/17 11:28:41;;;;;;;40.63;29.25;;;;;;;;;;4996527;28;20516;-72
2023/09/17 11:31:13;;;;;;;39.83;29.52;;;;;;;;;;4990600;28;20117;-72
2023/09/17 11:33:39;;;;;;;38.70;28.88;;;;;;;;;;4976846;28;20050;-72
2023/09/17 11:36:05;;;;;;;44.30;30.25;;;;;;;;;;4982932;28;20035;-73
2023/09/17 11:38:32;;;;;;;40.95;29.40;;;;;;;;;;4983514;28;20047;-71
2023/09/17 11:41:05;;;;;;;41.70;29.73;;;;;;;;;;4992398;28;20121;-72
2023/09/17 11:43:32;;;;;;;39.83;29.73;;;;;;;;;;4989989;28;20042;-72
2023/09/17 11:45:58;;;;;;;38.38;28.92;;;;;;;;;;4985802;28;20309;-72
2023/09/17 11:48:26;;;;;;;40.97;30.15;;;;;;;;;;4986527;28;20061;-72
2023/09/17 11:51:21;;;;;;;41.80;28.90;;;;;;;;;;4978229;28;20051;-72
2023/09/17 11:53:55;;;;;;;40.05;27.58;;;;;;;;;;4985343;28;20054;-72
2023/09/17 11:56:21;;;;;;;38.13;27.80;;;;;;;;;;4980871;28;20081;-72
2023/09/17 11:58:56;;;;;;;35.80;27.80;;;;;;;;;;4990994;28;20042;-71
2023/09/17 12:01:23;;;;;;;38.33;29.15;;;;;;;;;;4985155;28;20070;-71
2023/09/17 12:03:49;;;;;;;36.33;28.48;;;;;;;;;;4986482;28;20093;-71
2023/09/17 12:06:17;;;;;;;40.05;28.55;;;;;;;;;;4980779;28;20049;-72
2023/09/17 12:08:44;;;;;;;41.42;30.05;;;;;;;;;;4985008;28;20129;-72
2023/09/17 12:11:21;;;;;;;41.80;28.10;;;;;;;;;;4975036;28;20058;-72
2023/09/17 12:13:53;;;;;;;36.92;28.05;;;;;;;;;;4987909;28;20088;-72
2023/09/17 12:16:18;;;;;;;38.17;28.65;;;;;;;;;;4980853;28;20043;-72
2023/09/17 12:18:46;;;;;;;38.22;28.45;;;;;;;;;;4983342;28;20110;-72
2023/09/17 12:21:12;;;;;;;36.75;28.45;;;;;;;;;;4981886;28;20049;-72
2023/09/17 12:26:23;;;;;;;41.40;29.40;;;;;;;;;;4987322;28;20097;-72
2023/09/17 12:28:50;;;;;;;38.22;28.65;;;;;;;;;;4984959;28;20489;-72
2023/09/17 12:31:16;;;;;;;40.25;30.77;;;;;;;;;;4985625;28;20031;-72
2023/09/17 12:33:43;;;;;;;47.22;32.42;;;;;;;;;;4982143;28;20042;-72
2023/09/17 12:36:10;;;;;;;42.88;31.30;;;;;;;;;;4985772;28;20085;-72
2023/09/17 12:38:36;;;;;;;42.03;31.83;;;;;;;;;;4994102;28;20435;-72
2023/09/17 12:41:02;;;;;;;42.13;30.92;;;;;;;;;;4992135;28;20046;-72
2023/09/17 12:43:28;;;;;;;44.17;31.45;;;;;;;;;;4985492;28;20493;-72
2023/09/17 12:45:54;;;;;;;46.10;32.17;;;;;;;;;;4981960;28;20052;-72
2023/09/17 12:48:22;;;;;;;40.70;30.75;;;;;;;;;;4985157;28;20510;-72
2023/09/17 12:50:50;;;;;;;44.63;32.22;;;;;;;;;;4975078;28;20139;-72
2023/09/17 12:53:18;;;;;;;44.53;32.95;;;;;;;;;;4977195;28;20066;-72
2023/09/17 12:55:44;;;;;;;42.90;31.55;;;;;;;;;;4984995;28;20050;-72
2023/09/17 12:58:10;;;;;;;42.78;31.90;;;;;;;;;;4973584;28;20031;-72
2023/09/17 13:00:36;;;;;;;46.88;32.90;;;;;;;;;;4981241;28;20754;-72
2023/09/17 13:03:12;;;;;;;44.97;31.30;;;;;;;;;;4981766;28;20050;-72
2023/09/17 13:05:38;;;;;;;47.15;33.63;;;;;;;;;;4989232;28;20480;-72
2023/09/17 13:08:05;;;;;;;44.55;33.13;;;;;;;;;;4991086;28;20515;-72
2023/09/17 13:10:31;;;;;;;45.10;32.17;;;;;;;;;;4988064;28;20038;-72
2023/09/17 13:12:57;;;;;;;40.28;31.15;;;;;;;;;;4982339;28;20043;-72
2023/09/17 13:15:23;;;;;;;42.67;32.13;;;;;;;;;;4973382;28;20560;-72
2023/09/17 13:17:49;;;;;;;40.80;31.70;;;;;;;;;;4973244;28;20039;-72
2023/09/17 13:20:17;;;;;;;43.33;32.70;;;;;;;;;;5004072;28;20500;-72
2023/09/17 13:22:43;;;;;;;41.63;31.08;;;;;;;;;;4980116;28;20051;-72
2023/09/17 13:25:09;;;;;;;36.90;28.95;;;;;;;;;;4983707;28;20038;-72
2023/09/17 13:27:35;;;;;;;39.58;29.35;;;;;;;;;;4985870;28;20050;-69
2023/09/17 13:30:01;;;;;;;40.97;29.00;;;;;;;;;;4988497;28;20048;-69
2023/09/17 13:32:28;;;;;;;41.78;29.95;;;;;;;;;;4986291;28;20042;-69
2023/09/17 13:34:54;;;;;;;37.92;27.73;;;;;;;;;;4986958;28;20034;-70
2023/09/17 13:37:25;;;;;;;37.58;28.15;;;;;;;;;;4984295;28;20042;-70
2023/09/17 13:39:52;;;;;;;37.20;26.90;;;;;;;;;;4989795;28;20405;-70
2023/09/17 13:42:18;;;;;;;37.22;27.40;;;;;;;;;;4986452;28;20050;-69
2023/09/17 13:44:44;;;;;;;36.38;26.27;;;;;;;;;;4984029;28;20035;-70
2023/09/17 13:47:11;;;;;;;38.55;27.95;;;;;;;;;;4986088;28;20045;-70
2023/09/17 13:49:38;;;;;;;33.38;26.20;;;;;;;;;;4980131;28;20050;-70
2023/09/17 13:52:04;;;;;;;36.88;27.25;;;;;;;;;;4991141;28;20125;-70
2023/09/17 13:54:30;;;;;;;34.65;26.10;;;;;;;;;;4979958;28;20043;-70
2023/09/17 13:56:56;;;;;;;36.95;26.55;;;;;;;;;;4991097;28;20540;-70
2023/09/17 13:59:22;;;;;;;34.22;26.77;;;;;;;;;;4986737;28;20038;-70
2023/09/17 14:01:49;;;;;;;33.85;24.85;;;;;;;;;;4992506;28;20439;-70
2023/09/17 14:04:15;;;;;;;33.30;25.50;;;;;;;;;;4987722;28;20045;-70
2023/09/17 14:06:41;;;;;;;32.85;24.42;;;;;;;;;;4993467;28;20043;-70
2023/09/17 14:09:07;;;;;;;32.50;24.08;;;;;;;;;;4991608;28;20109;-70
2023/09/17 14:11:35;;;;;;;32.20;23.52;;;;;;;;;;4987408;28;20038;-71
2023/09/17 14:14:01;;;;;;;30.95;23.05;;;;;;;;;;4982320;28;20101;-71
2023/09/17 14:16:27;;;;;;;31.50;22.98;;;;;;;;;;4987719;28;20042;-71
2023/09/17 14:18:53;;;;;;;28.88;22.05;;;;;;;;;;4981508;28;20126;-71
2023/09/17 14:21:19;;;;;;;30.55;22.08;;;;;;;;;;4978796;28;20485;-71